createdAt,value
2019-03-01T00:00:17.182Z,99.99
2019-03-01T00:01:18.606Z,99.99
2019-03-01T00:02:19.996Z,99.99
2019-03-01T00:03:21.391Z,99.99
2019-03-01T00:04:22.797Z,99.99
2019-03-01T00:05:24.195Z,99.99
2019-03-01T00:06:25.599Z,99.99
2019-03-01T00:07:27.032Z,99.99
2019-03-01T00:08:28.409Z,99.99
2019-03-01T00:09:29.807Z,99.99
2019-03-01T00:10:31.210Z,99.99
2019-03-01T00:11:32.633Z,99.99
2019-03-01T00:12:34.027Z,99.99
2019-03-01T00:13:35.429Z,99.99
2019-03-01T00:14:36.836Z,99.99
2019-03-01T00:15:38.228Z,99.99
2019-03-01T00:16:39.642Z,99.99
2019-03-01T00:17:41.923Z,99.99
2019-03-01T00:18:43.341Z,99.99
2019-03-01T00:19:44.730Z,99.99
2019-03-01T00:20:46.153Z,99.99
2019-03-01T00:21:47.550Z,99.99
2019-03-01T00:22:48.942Z,99.99
2019-03-01T00:23:50.350Z,99.99
2019-03-01T00:24:51.752Z,99.99
2019-03-01T00:25:53.154Z,99.99
2019-03-01T00:26:54.593Z,99.99
2019-03-01T00:27:55.982Z,99.99
2019-03-01T00:28:57.385Z,99.99
2019-03-01T00:29:58.826Z,99.99
2019-03-01T00:31:00.244Z,99.99
2019-03-01T00:32:01.626Z,99.99
2019-03-01T00:33:03.027Z,99.99
2019-03-01T00:34:04.421Z,99.99
2019-03-01T00:35:05.818Z,99.99
2019-03-01T00:36:07.205Z,99.99
2019-03-01T00:37:08.595Z,99.99
2019-03-01T00:38:10.001Z,99.99
2019-03-01T00:39:11.463Z,99.99
2019-03-01T00:40:12.825Z,99.99
2019-03-01T00:41:14.249Z,99.99
2019-03-01T00:42:15.642Z,99.99
2019-03-01T00:43:17.035Z,99.99
2019-03-01T00:44:18.435Z,99.99
2019-03-01T00:45:19.810Z,99.99
2019-03-01T00:46:21.219Z,99.99
2019-03-01T00:47:22.626Z,99.99
2019-03-01T00:48:24.020Z,99.99
2019-03-01T00:49:25.418Z,99.99
2019-03-01T00:50:27.336Z,99.99
2019-03-01T00:51:28.748Z,99.99
2019-03-01T00:52:30.144Z,99.99
2019-03-01T00:53:31.569Z,99.99
2019-03-01T00:54:32.958Z,99.99
2019-03-01T00:55:34.354Z,99.99
2019-03-01T00:56:35.756Z,99.99
2019-03-01T00:57:37.126Z,99.99
2019-03-01T00:58:38.540Z,99.99
2019-03-01T00:59:39.982Z,99.99
2019-03-01T01:00:41.361Z,99.99
2019-03-01T01:01:42.775Z,99.99
2019-03-01T01:02:44.210Z,99.99
2019-03-01T01:03:45.617Z,99.99
2019-03-01T01:04:47.055Z,99.99
2019-03-01T01:05:48.488Z,99.99
2019-03-01T01:06:49.902Z,99.99
2019-03-01T01:07:51.313Z,99.99
2019-03-01T01:08:52.728Z,99.99
2019-03-01T01:09:54.136Z,99.99
2019-03-01T01:10:55.537Z,99.99
2019-03-01T01:11:56.948Z,99.99
2019-03-01T01:12:58.962Z,99.99
2019-03-01T01:14:00.351Z,99.99
2019-03-01T01:15:01.792Z,99.99
2019-03-01T01:16:03.190Z,99.99
2019-03-01T01:17:04.587Z,99.99
2019-03-01T01:18:06.015Z,99.99
2019-03-01T01:19:07.400Z,99.99
2019-03-01T01:20:08.797Z,99.99
2019-03-01T01:21:10.212Z,99.99
2019-03-01T01:22:12.363Z,99.99
2019-03-01T01:23:14.061Z,99.99
2019-03-01T01:24:15.587Z,99.99
2019-03-01T01:25:17.305Z,99.99
2019-03-01T01:26:18.741Z,99.99
2019-03-01T01:27:20.151Z,99.99
2019-03-01T01:28:21.583Z,99.99
2019-03-01T01:29:22.971Z,99.99
2019-03-01T01:30:24.391Z,99.99
2019-03-01T01:31:25.813Z,99.99
2019-03-01T01:32:27.216Z,99.99
2019-03-01T01:33:28.603Z,99.99
2019-03-01T01:34:30.003Z,99.99
2019-03-01T01:35:31.419Z,99.99
2019-03-01T01:36:32.815Z,99.99
2019-03-01T01:37:34.207Z,99.99
2019-03-01T01:38:35.597Z,99.99
2019-03-01T01:39:36.994Z,99.99
2019-03-01T01:40:38.407Z,99.99
2019-03-01T01:41:39.831Z,99.99
2019-03-01T01:42:41.224Z,99.99
2019-03-01T01:43:42.627Z,99.99
2019-03-01T01:44:44.028Z,99.99
2019-03-01T01:45:45.431Z,99.99
2019-03-01T01:46:46.860Z,99.99
2019-03-01T01:47:48.260Z,99.99
2019-03-01T01:48:49.653Z,99.99
2019-03-01T01:49:51.049Z,99.99
2019-03-01T01:50:52.444Z,99.99
2019-03-01T01:51:53.839Z,99.99
2019-03-01T01:52:55.263Z,99.99
2019-03-01T01:53:56.664Z,99.99
2019-03-01T01:54:58.066Z,99.99
2019-03-01T01:55:59.473Z,99.99
2019-03-01T01:57:00.861Z,99.99
2019-03-01T01:58:02.265Z,99.99
2019-03-01T01:59:03.667Z,99.99
2019-03-01T02:00:05.088Z,99.99
2019-03-01T02:01:06.481Z,99.99
2019-03-01T02:02:07.893Z,99.99
2019-03-01T02:03:09.304Z,99.99
2019-03-01T02:04:10.677Z,99.99
2019-03-01T02:05:12.081Z,99.99
2019-03-01T02:06:13.484Z,99.99
2019-03-01T02:07:14.894Z,99.99
2019-03-01T02:08:16.303Z,99.99
2019-03-01T02:09:17.744Z,99.99
2019-03-01T02:10:19.980Z,99.99
2019-03-01T02:11:21.385Z,99.99
2019-03-01T02:12:22.780Z,99.99
2019-03-01T02:13:24.182Z,99.99
2019-03-01T02:14:25.582Z,99.99
2019-03-01T02:15:27.000Z,99.99
2019-03-01T02:16:28.400Z,99.99
2019-03-01T02:17:29.802Z,99.99
2019-03-01T02:18:31.189Z,99.99
2019-03-01T02:19:32.642Z,99.99
2019-03-01T02:20:34.025Z,99.99
2019-03-01T02:21:35.431Z,99.99
2019-03-01T02:22:36.866Z,99.99
2019-03-01T02:23:40.074Z,99.99
2019-03-01T02:24:39.633Z,99.99
2019-03-01T02:25:41.031Z,99.99
2019-03-01T02:26:42.430Z,99.99
2019-03-01T02:27:43.843Z,99.99
2019-03-01T02:28:45.229Z,99.99
2019-03-01T02:29:46.630Z,99.99
2019-03-01T02:30:48.054Z,99.99
2019-03-01T02:31:49.488Z,99.99
2019-03-01T02:32:50.907Z,99.99
2019-03-01T02:33:52.305Z,99.99
2019-03-01T02:34:53.718Z,99.99
2019-03-01T02:35:55.115Z,99.99
2019-03-01T02:36:56.513Z,99.99
2019-03-01T02:37:57.970Z,99.99
2019-03-01T02:38:59.269Z,99.99
2019-03-01T02:40:00.711Z,99.99
2019-03-01T02:41:02.105Z,99.99
2019-03-01T02:42:05.308Z,99.99
2019-03-01T02:43:06.709Z,99.99
2019-03-01T02:44:08.101Z,99.99
2019-03-01T02:45:09.489Z,99.99
2019-03-01T02:46:10.919Z,99.99
2019-03-01T02:47:12.314Z,99.99
2019-03-01T02:48:13.702Z,99.99
2019-03-01T02:49:15.121Z,99.99
2019-03-01T02:50:16.550Z,99.99
2019-03-01T02:51:17.944Z,99.99
2019-03-01T02:52:19.344Z,99.99
2019-03-01T02:53:20.771Z,99.99
2019-03-01T02:54:22.177Z,99.99
2019-03-01T02:55:23.565Z,99.99
2019-03-01T02:56:24.957Z,99.99
2019-03-01T02:57:26.365Z,99.99
2019-03-01T02:58:27.767Z,99.99
2019-03-01T02:59:29.170Z,99.99
2019-03-01T03:00:30.575Z,99.99
2019-03-01T03:01:31.980Z,99.99
2019-03-01T03:02:33.372Z,99.99
2019-03-01T03:03:34.774Z,99.99
2019-03-01T03:04:36.176Z,99.99
2019-03-01T03:05:37.586Z,99.99
2019-03-01T03:06:38.981Z,99.99
2019-03-01T03:07:40.381Z,99.99
2019-03-01T03:08:41.776Z,99.99
2019-03-01T03:09:43.183Z,99.99
2019-03-01T03:10:44.572Z,99.99
2019-03-01T03:11:45.971Z,99.99
2019-03-01T03:12:47.354Z,99.99
2019-03-01T03:13:49.296Z,99.99
2019-03-01T03:14:50.693Z,99.99
2019-03-01T03:15:52.085Z,99.99
2019-03-01T03:16:53.483Z,99.99
2019-03-01T03:17:54.921Z,99.99
2019-03-01T03:18:56.327Z,99.99
2019-03-01T03:19:57.717Z,99.99
2019-03-01T03:20:59.117Z,99.99
2019-03-01T03:22:00.527Z,99.99
2019-03-01T03:23:01.948Z,99.99
2019-03-01T03:24:03.332Z,99.99
2019-03-01T03:25:04.737Z,99.99
2019-03-01T03:26:06.136Z,99.99
2019-03-01T03:27:07.544Z,99.99
2019-03-01T03:28:08.941Z,99.99
2019-03-01T03:29:10.357Z,99.99
2019-03-01T03:30:11.733Z,99.99
2019-03-01T03:31:13.146Z,99.99
2019-03-01T03:32:14.542Z,99.99
2019-03-01T03:33:15.952Z,99.99
2019-03-01T03:34:17.401Z,99.99
2019-03-01T03:35:18.789Z,99.99
2019-03-01T03:36:20.203Z,99.99
2019-03-01T03:37:21.604Z,99.99
2019-03-01T03:38:23.031Z,99.99
2019-03-01T03:39:24.425Z,99.99
2019-03-01T03:40:25.849Z,99.99
2019-03-01T03:41:27.287Z,99.99
2019-03-01T03:42:28.722Z,99.99
2019-03-01T03:43:30.093Z,99.99
2019-03-01T03:44:31.486Z,99.99
2019-03-01T03:45:32.893Z,99.99
2019-03-01T03:46:34.293Z,99.99
2019-03-01T03:47:35.701Z,99.99
2019-03-01T03:48:37.111Z,99.99
2019-03-01T03:49:38.514Z,99.99
2019-03-01T03:50:39.909Z,99.99
2019-03-01T03:51:41.313Z,99.99
2019-03-01T03:52:42.720Z,99.99
2019-03-01T03:53:44.150Z,99.99
2019-03-01T03:54:45.570Z,99.99
2019-03-01T03:55:46.976Z,99.99
2019-03-01T03:56:48.353Z,99.99
2019-03-01T03:57:49.751Z,99.99
2019-03-01T03:58:51.142Z,99.99
2019-03-01T03:59:52.541Z,99.99
2019-03-01T04:00:53.931Z,99.99
2019-03-01T04:01:55.746Z,99.99
2019-03-01T04:02:57.163Z,99.99
2019-03-01T04:03:58.575Z,99.99
2019-03-01T04:04:59.975Z,99.99
2019-03-01T04:06:01.373Z,99.99
2019-03-01T04:07:02.783Z,99.99
2019-03-01T04:08:04.278Z,99.99
2019-03-01T04:09:05.535Z,99.99
2019-03-01T04:10:06.961Z,99.99
2019-03-01T04:11:08.368Z,99.99
2019-03-01T04:12:09.773Z,99.99
2019-03-01T04:13:11.167Z,99.99
2019-03-01T04:14:12.577Z,99.99
2019-03-01T04:15:13.968Z,99.99
2019-03-01T04:16:15.388Z,99.99
2019-03-01T04:17:17.770Z,99.99
2019-03-01T04:18:19.180Z,99.99
2019-03-01T04:19:20.582Z,99.99
2019-03-01T04:20:21.988Z,99.99
2019-03-01T04:21:23.382Z,99.99
2019-03-01T04:22:24.774Z,99.99
2019-03-01T04:23:26.169Z,99.99
2019-03-01T04:24:27.589Z,99.99
2019-03-01T04:25:28.990Z,99.99
2019-03-01T04:26:30.410Z,99.99
2019-03-01T04:27:31.830Z,99.99
2019-03-01T04:28:33.239Z,99.99
2019-03-01T04:29:34.646Z,99.99
2019-03-01T04:30:36.062Z,99.99
2019-03-01T04:31:37.492Z,99.99
2019-03-01T04:32:38.906Z,99.99
2019-03-01T04:33:40.338Z,99.99
2019-03-01T04:34:41.754Z,99.99
2019-03-01T04:35:43.158Z,99.99
2019-03-01T04:36:44.559Z,99.99
2019-03-01T04:37:45.967Z,99.99
2019-03-01T04:38:47.389Z,99.99
2019-03-01T04:39:48.792Z,99.99
2019-03-01T04:40:50.932Z,99.99
2019-03-01T04:41:52.347Z,99.99
2019-03-01T04:42:53.757Z,99.99
2019-03-01T04:43:55.168Z,99.99
2019-03-01T04:44:56.559Z,99.99
2019-03-01T04:45:57.973Z,99.99
2019-03-01T04:46:59.369Z,99.99
2019-03-01T04:48:00.788Z,99.99
2019-03-01T04:49:02.837Z,99.99
2019-03-01T04:50:04.249Z,99.99
2019-03-01T04:51:05.641Z,99.99
2019-03-01T04:52:07.039Z,99.99
2019-03-01T04:53:08.497Z,99.99
2019-03-01T04:54:09.915Z,99.99
2019-03-01T04:55:11.333Z,99.99
2019-03-01T04:56:12.734Z,99.99
2019-03-01T04:57:14.148Z,99.99
2019-03-01T04:58:15.574Z,99.99
2019-03-01T04:59:17.003Z,99.99
2019-03-01T05:00:18.426Z,99.99
2019-03-01T05:01:19.816Z,99.99
2019-03-01T05:02:21.218Z,99.99
2019-03-01T05:03:22.620Z,99.99
2019-03-01T05:04:24.027Z,99.99
2019-03-01T05:05:25.446Z,99.99
2019-03-01T05:06:26.843Z,99.99
2019-03-01T05:07:28.257Z,99.99
2019-03-01T05:08:29.672Z,99.99
2019-03-01T05:09:31.086Z,99.99
2019-03-01T05:10:32.526Z,99.99
2019-03-01T05:11:33.933Z,99.99
2019-03-01T05:12:35.321Z,99.99
2019-03-01T05:13:36.771Z,99.99
2019-03-01T05:14:38.163Z,99.99
2019-03-01T05:15:39.579Z,99.99
2019-03-01T05:16:40.989Z,99.99
2019-03-01T05:17:42.368Z,99.99
2019-03-01T05:18:43.789Z,99.99
2019-03-01T05:19:45.213Z,99.99
2019-03-01T05:20:46.613Z,99.99
2019-03-01T05:21:48.009Z,99.99
2019-03-01T05:22:49.419Z,99.99
2019-03-01T05:23:50.828Z,99.99
2019-03-01T05:24:52.252Z,99.99
2019-03-01T05:25:53.653Z,99.99
2019-03-01T05:26:55.058Z,99.99
2019-03-01T05:27:56.481Z,99.99
2019-03-01T05:28:57.910Z,99.99
2019-03-01T05:29:59.356Z,99.99
2019-03-01T05:31:00.774Z,99.99
2019-03-01T05:32:02.144Z,99.99
2019-03-01T05:33:03.548Z,99.99
2019-03-01T05:34:04.942Z,99.99
2019-03-01T05:35:06.328Z,99.99
2019-03-01T05:36:07.724Z,99.99
2019-03-01T05:37:09.109Z,99.99
2019-03-01T05:38:10.540Z,99.99
2019-03-01T05:39:11.910Z,99.99
2019-03-01T05:40:13.297Z,99.99
2019-03-01T05:41:14.710Z,99.99
2019-03-01T05:42:16.111Z,99.99
2019-03-01T05:43:17.514Z,99.99
2019-03-01T05:44:18.901Z,99.99
2019-03-01T05:45:20.301Z,99.99
2019-03-01T05:46:21.694Z,99.99
2019-03-01T05:47:23.113Z,99.99
2019-03-01T05:48:24.505Z,99.99
2019-03-01T05:49:25.891Z,99.99
2019-03-01T05:50:27.278Z,99.99
2019-03-01T05:51:28.660Z,99.99
2019-03-01T05:52:30.070Z,99.99
2019-03-01T05:53:31.472Z,99.99
2019-03-01T05:54:32.875Z,99.99
2019-03-01T05:55:34.265Z,99.99
2019-03-01T05:56:35.674Z,99.99
2019-03-01T05:57:37.065Z,99.99
2019-03-01T05:58:38.486Z,99.99
2019-03-01T05:59:39.848Z,99.99
2019-03-01T06:00:41.244Z,99.99
2019-03-01T06:01:42.643Z,99.99
2019-03-01T06:02:44.038Z,99.99
2019-03-01T06:03:45.447Z,99.99
2019-03-01T06:04:46.851Z,99.99
2019-03-01T06:05:48.267Z,99.99
2019-03-01T06:06:49.674Z,99.99
2019-03-01T06:07:51.073Z,99.99
2019-03-01T06:08:52.470Z,99.99
2019-03-01T06:09:53.862Z,99.99
2019-03-01T06:10:55.997Z,99.99
2019-03-01T06:11:56.593Z,99.99
2019-03-01T06:12:57.981Z,99.99
2019-03-01T06:13:59.365Z,99.99
2019-03-01T06:15:00.807Z,99.99
2019-03-01T06:16:02.255Z,99.99
2019-03-01T06:17:03.683Z,99.99
2019-03-01T06:18:05.094Z,99.99
2019-03-01T06:19:06.493Z,99.99
2019-03-01T06:20:07.898Z,99.99
2019-03-01T06:21:09.287Z,99.99
2019-03-01T06:22:10.680Z,99.99
2019-03-01T06:23:12.080Z,99.99
2019-03-01T06:24:13.454Z,99.99
2019-03-01T06:25:14.868Z,99.99
2019-03-01T06:26:16.277Z,99.99
2019-03-01T06:27:17.678Z,99.99
2019-03-01T06:28:19.074Z,99.99
2019-03-01T06:29:20.506Z,99.99
2019-03-01T06:30:21.935Z,99.99
2019-03-01T06:31:23.331Z,99.99
2019-03-01T06:32:24.720Z,99.99
2019-03-01T06:33:26.113Z,99.99
2019-03-01T06:34:27.568Z,99.99
2019-03-01T06:35:28.966Z,99.99
2019-03-01T06:36:30.365Z,99.99
2019-03-01T06:37:31.775Z,99.99
2019-03-01T06:38:33.179Z,99.99
2019-03-01T06:39:34.619Z,99.99
2019-03-01T06:40:36.010Z,99.99
2019-03-01T06:41:37.398Z,99.99
2019-03-01T06:42:38.792Z,99.99
2019-03-01T06:43:40.193Z,99.99
2019-03-01T06:44:41.586Z,99.99
2019-03-01T06:45:42.992Z,99.99
2019-03-01T06:46:44.388Z,99.99
2019-03-01T06:47:45.786Z,99.99
2019-03-01T06:48:47.189Z,99.99
2019-03-01T06:49:48.610Z,99.99
2019-03-01T06:50:50.033Z,99.99
2019-03-01T06:51:51.464Z,99.99
2019-03-01T06:52:52.865Z,99.99
2019-03-01T06:53:54.278Z,99.99
2019-03-01T06:54:55.660Z,99.99
2019-03-01T06:55:57.078Z,99.99
2019-03-01T06:56:58.487Z,99.99
2019-03-01T06:57:59.877Z,99.99
2019-03-01T06:59:01.286Z,99.99
2019-03-01T07:00:02.683Z,99.99
2019-03-01T07:01:04.083Z,99.99
2019-03-01T07:02:05.482Z,99.99
2019-03-01T07:03:06.904Z,99.99
2019-03-01T07:04:08.308Z,99.99
2019-03-01T07:05:09.722Z,99.99
2019-03-01T07:06:11.146Z,99.99
2019-03-01T07:07:12.552Z,99.99
2019-03-01T07:08:13.960Z,99.99
2019-03-01T07:09:15.362Z,99.99
2019-03-01T07:10:16.750Z,99.99
2019-03-01T07:11:18.163Z,99.99
2019-03-01T07:12:19.564Z,99.99
2019-03-01T07:13:20.962Z,99.99
2019-03-01T07:14:22.362Z,99.99
2019-03-01T07:15:23.753Z,99.99
2019-03-01T07:16:25.161Z,99.99
2019-03-01T07:17:26.559Z,99.99
2019-03-01T07:18:27.991Z,99.99
2019-03-01T07:19:29.390Z,99.99
2019-03-01T07:20:30.798Z,99.99
2019-03-01T07:21:32.192Z,99.99
2019-03-01T07:22:33.589Z,99.99
2019-03-01T07:23:36.949Z,99.99
2019-03-01T07:24:36.352Z,99.99
2019-03-01T07:25:37.751Z,99.99
2019-03-01T07:26:39.140Z,99.99
2019-03-01T07:27:40.543Z,99.99
2019-03-01T07:28:41.935Z,99.99
2019-03-01T07:29:43.330Z,99.99
2019-03-01T07:30:44.724Z,99.99
2019-03-01T07:31:46.176Z,99.99
2019-03-01T07:32:47.572Z,99.99
2019-03-01T07:33:48.975Z,99.99
2019-03-01T07:34:50.368Z,99.99
2019-03-01T07:35:51.771Z,99.99
2019-03-01T07:36:53.166Z,99.99
2019-03-01T07:37:54.553Z,99.99
2019-03-01T07:38:55.953Z,99.99
2019-03-01T07:39:57.367Z,99.99
2019-03-01T07:40:59.512Z,99.99
2019-03-01T07:42:00.127Z,99.99
2019-03-01T07:43:01.513Z,99.99
2019-03-01T07:44:02.914Z,99.99
2019-03-01T07:45:04.309Z,99.99
2019-03-01T07:46:05.711Z,99.99
2019-03-01T07:47:07.105Z,99.99
2019-03-01T07:48:08.508Z,99.99
2019-03-01T07:49:09.910Z,99.99
2019-03-01T07:50:11.294Z,99.99
2019-03-01T07:51:12.688Z,99.99
2019-03-01T07:52:14.092Z,99.99
2019-03-01T07:53:15.486Z,99.99
2019-03-01T07:54:18.018Z,99.99
2019-03-01T07:55:18.258Z,99.99
2019-03-01T07:56:19.675Z,99.99
2019-03-01T07:57:21.068Z,99.99
2019-03-01T07:58:25.637Z,99.99
2019-03-01T07:59:24.112Z,99.99
2019-03-01T08:00:25.232Z,99.99
2019-03-01T08:01:29.218Z,99.99
2019-03-01T08:02:28.020Z,99.99
2019-03-01T08:03:29.439Z,99.99
2019-03-01T08:04:30.861Z,99.99
2019-03-01T08:05:32.253Z,99.99
2019-03-01T08:06:33.647Z,99.99
2019-03-01T08:07:35.063Z,99.99
2019-03-01T08:08:38.830Z,99.99
2019-03-01T08:09:37.836Z,99.99
2019-03-01T08:10:39.247Z,99.99
2019-03-01T08:11:40.636Z,99.99
2019-03-01T08:12:42.517Z,99.99
2019-03-01T08:13:43.407Z,99.99
2019-03-01T08:14:44.803Z,99.99
2019-03-01T08:15:46.793Z,99.99
2019-03-01T08:16:48.994Z,99.99
2019-03-01T08:17:50.422Z,99.99
2019-03-01T08:18:51.822Z,99.99
2019-03-01T08:19:54.965Z,99.99
2019-03-01T08:20:54.589Z,99.99
2019-03-01T08:21:55.997Z,99.99
2019-03-01T08:22:59.834Z,99.99
2019-03-01T08:23:58.776Z,99.99
2019-03-01T08:25:00.255Z,99.99
2019-03-01T08:26:03.277Z,99.99
2019-03-01T08:27:06.556Z,99.82
2019-03-01T08:28:04.266Z,99.16
2019-03-01T08:29:05.665Z,99.44
2019-03-01T08:30:10.277Z,99.16
2019-03-01T08:31:09.844Z,98.87
2019-03-01T08:32:09.812Z,98.07
2019-03-01T08:33:11.236Z,97.60
2019-03-01T08:34:14.501Z,97.69
2019-03-01T08:35:14.005Z,97.41
2019-03-01T08:36:15.409Z,97.02
2019-03-01T08:37:17.656Z,97.02
2019-03-01T08:38:18.913Z,96.74
2019-03-01T08:39:20.324Z,96.74
2019-03-01T08:40:21.731Z,96.83
2019-03-01T08:41:24.973Z,96.64
2019-03-01T08:42:24.513Z,96.36
2019-03-01T08:43:25.948Z,96.26
2019-03-01T08:44:27.353Z,96.17
2019-03-01T08:45:29.759Z,96.36
2019-03-01T08:46:30.140Z,96.36
2019-03-01T08:47:31.566Z,96.17
2019-03-01T08:48:33.671Z,96.17
2019-03-01T08:49:34.320Z,96.55
2019-03-01T08:50:35.732Z,95.79
2019-03-01T08:51:37.138Z,96.08
2019-03-01T08:52:40.443Z,95.51
2019-03-01T08:53:39.926Z,95.89
2019-03-01T08:54:41.399Z,95.41
2019-03-01T08:55:42.823Z,95.51
2019-03-01T08:56:46.371Z,94.84
2019-03-01T08:57:45.635Z,95.03
2019-03-01T08:58:47.043Z,94.93
2019-03-01T08:59:48.467Z,94.65
2019-03-01T09:00:59.047Z,94.74
2019-03-01T09:01:51.227Z,94.27
2019-03-01T09:02:52.665Z,94.08
2019-03-01T09:03:54.077Z,93.89
2019-03-01T09:04:55.475Z,93.60
2019-03-01T09:05:56.878Z,93.80
2019-03-01T09:06:58.314Z,93.70
2019-03-01T09:07:59.717Z,93.70
2019-03-01T09:09:01.134Z,93.70
2019-03-01T09:10:02.544Z,93.51
2019-03-01T09:11:05.498Z,93.51
2019-03-01T09:12:05.355Z,93.70
2019-03-01T09:13:06.755Z,93.70
2019-03-01T09:14:08.122Z,92.94
2019-03-01T09:15:09.560Z,92.37
2019-03-01T09:16:10.936Z,91.71
2019-03-01T09:17:12.344Z,91.14
2019-03-01T09:18:14.607Z,90.57
2019-03-01T09:19:15.796Z,90.76
2019-03-01T09:20:17.200Z,90.57
2019-03-01T09:21:18.602Z,90.90
2019-03-01T09:22:20.000Z,90.42
2019-03-01T09:23:25.339Z,90.23
2019-03-01T09:24:25.786Z,90.23
2019-03-01T09:25:24.110Z,90.05
2019-03-01T09:26:25.511Z,89.67
2019-03-01T09:27:30.056Z,89.76
2019-03-01T09:28:28.275Z,90.14
2019-03-01T09:29:29.685Z,89.09
2019-03-01T09:30:31.069Z,89.47
2019-03-01T09:31:32.461Z,88.90
2019-03-01T09:32:34.787Z,89.09
2019-03-01T09:33:35.212Z,88.62
2019-03-01T09:34:36.633Z,87.86
2019-03-01T09:35:39.608Z,86.91
2019-03-01T09:36:40.125Z,86.63
2019-03-01T09:37:41.535Z,86.24
2019-03-01T09:38:43.691Z,85.86
2019-03-01T09:39:44.306Z,83.87
2019-03-01T09:40:45.695Z,83.39
2019-03-01T09:41:47.096Z,82.45
2019-03-01T09:42:51.259Z,82.64
2019-03-01T09:43:49.860Z,83.11
2019-03-01T09:44:51.252Z,83.30
2019-03-01T09:45:52.653Z,82.64
2019-03-01T09:46:54.042Z,82.64
2019-03-01T09:47:55.440Z,82.45
2019-03-01T09:48:56.848Z,82.64
2019-03-01T09:50:00.226Z,82.54
2019-03-01T09:50:59.602Z,82.45
2019-03-01T09:52:01.043Z,83.11
2019-03-01T09:53:02.432Z,83.01
2019-03-01T09:54:06.463Z,83.20
2019-03-01T09:55:05.571Z,83.59
2019-03-01T09:56:09.596Z,83.49
2019-03-01T09:57:07.923Z,83.11
2019-03-01T09:58:09.327Z,82.64
2019-03-01T09:59:10.729Z,82.45
2019-03-01T10:00:12.141Z,82.16
2019-03-01T10:01:13.540Z,81.87
2019-03-01T10:02:14.949Z,81.40
2019-03-01T10:03:16.348Z,81.30
2019-03-01T10:04:17.748Z,80.35
2019-03-01T10:05:19.144Z,80.45
2019-03-01T10:06:20.550Z,80.07
2019-03-01T10:07:21.951Z,79.60
2019-03-01T10:08:23.586Z,80.07
2019-03-01T10:09:25.224Z,79.97
2019-03-01T10:10:26.616Z,80.26
2019-03-01T10:11:28.011Z,80.55
2019-03-01T10:12:29.422Z,80.26
2019-03-01T10:13:30.822Z,80.45
2019-03-01T10:14:32.228Z,80.64
2019-03-01T10:15:33.639Z,81.02
2019-03-01T10:16:35.185Z,81.02
2019-03-01T10:17:36.642Z,80.74
2019-03-01T10:18:38.292Z,80.83
2019-03-01T10:19:39.714Z,80.74
2019-03-01T10:20:41.242Z,80.35
2019-03-01T10:21:42.736Z,79.97
2019-03-01T10:22:44.200Z,79.50
2019-03-01T10:23:45.619Z,79.50
2019-03-01T10:24:47.023Z,79.41
2019-03-01T10:25:48.455Z,79.50
2019-03-01T10:26:49.863Z,79.31
2019-03-01T10:27:51.293Z,79.22
2019-03-01T10:28:52.721Z,79.50
2019-03-01T10:29:54.136Z,79.97
2019-03-01T10:30:55.549Z,79.73
2019-03-01T10:31:57.536Z,79.79
2019-03-01T10:32:58.286Z,80.26
2019-03-01T10:33:59.704Z,80.45
2019-03-01T10:35:01.079Z,80.68
2019-03-01T10:36:02.481Z,80.30
2019-03-01T10:37:03.879Z,79.25
2019-03-01T10:38:05.276Z,78.69
2019-03-01T10:39:07.652Z,78.21
2019-03-01T10:40:09.089Z,78.02
2019-03-01T10:41:10.493Z,77.45
2019-03-01T10:42:11.917Z,77.17
2019-03-01T10:43:13.329Z,76.97
2019-03-01T10:44:14.731Z,76.54
2019-03-01T10:45:16.124Z,76.12
2019-03-01T10:46:17.535Z,75.45
2019-03-01T10:47:18.934Z,75.74
2019-03-01T10:48:20.530Z,75.36
2019-03-01T10:49:22.054Z,75.11
2019-03-01T10:50:23.466Z,75.36
2019-03-01T10:51:24.866Z,75.74
2019-03-01T10:52:26.274Z,75.74
2019-03-01T10:53:27.722Z,75.64
2019-03-01T10:54:29.124Z,75.26
2019-03-01T10:55:30.528Z,75.64
2019-03-01T10:56:31.921Z,75.84
2019-03-01T10:57:33.339Z,75.45
2019-03-01T10:58:34.745Z,75.93
2019-03-01T10:59:36.129Z,76.03
2019-03-01T11:00:37.547Z,76.03
2019-03-01T11:01:38.963Z,76.40
2019-03-01T11:02:40.404Z,76.59
2019-03-01T11:03:41.795Z,76.88
2019-03-01T11:04:43.221Z,77.45
2019-03-01T11:05:44.641Z,77.73
2019-03-01T11:06:46.044Z,77.36
2019-03-01T11:07:47.463Z,76.97
2019-03-01T11:08:48.854Z,76.88
2019-03-01T11:09:50.277Z,76.82
2019-03-01T11:10:51.693Z,76.50
2019-03-01T11:11:53.086Z,76.31
2019-03-01T11:12:54.499Z,76.16
2019-03-01T11:13:55.916Z,75.68
2019-03-01T11:14:57.327Z,75.87
2019-03-01T11:15:58.756Z,75.59
2019-03-01T11:17:00.168Z,75.68
2019-03-01T11:18:01.584Z,75.40
2019-03-01T11:19:03.010Z,74.54
2019-03-01T11:20:04.422Z,74.63
2019-03-01T11:21:05.879Z,74.73
2019-03-01T11:22:07.282Z,74.73
2019-03-01T11:23:08.719Z,74.82
2019-03-01T11:24:10.110Z,74.44
2019-03-01T11:25:11.531Z,74.54
2019-03-01T11:26:12.934Z,74.44
2019-03-01T11:27:14.337Z,74.16
2019-03-01T11:28:15.759Z,73.69
2019-03-01T11:29:17.157Z,73.88
2019-03-01T11:30:18.553Z,73.69
2019-03-01T11:31:19.959Z,73.97
2019-03-01T11:32:21.375Z,74.07
2019-03-01T11:33:22.782Z,74.16
2019-03-01T11:34:24.195Z,73.69
2019-03-01T11:35:25.613Z,74.73
2019-03-01T11:36:27.018Z,73.97
2019-03-01T11:37:28.425Z,72.83
2019-03-01T11:38:29.835Z,72.64
2019-03-01T11:39:31.256Z,72.83
2019-03-01T11:40:32.701Z,72.83
2019-03-01T11:41:34.113Z,72.35
2019-03-01T11:42:35.519Z,72.83
2019-03-01T11:43:36.932Z,72.16
2019-03-01T11:44:38.355Z,72.35
2019-03-01T11:45:39.754Z,72.45
2019-03-01T11:46:41.154Z,71.50
2019-03-01T11:47:42.605Z,71.41
2019-03-01T11:48:43.965Z,71.50
2019-03-01T11:49:45.399Z,71.41
2019-03-01T11:50:46.806Z,71.50
2019-03-01T11:51:48.249Z,71.31
2019-03-01T11:52:49.682Z,71.59
2019-03-01T11:53:51.105Z,71.50
2019-03-01T11:54:52.531Z,71.41
2019-03-01T11:55:53.942Z,71.78
2019-03-01T11:56:55.350Z,71.50
2019-03-01T11:57:56.760Z,71.22
2019-03-01T11:58:58.237Z,70.83
2019-03-01T11:59:59.638Z,70.74
2019-03-01T12:01:01.045Z,71.12
2019-03-01T12:02:02.471Z,71.59
2019-03-01T12:03:03.884Z,71.50
2019-03-01T12:04:05.297Z,71.50
2019-03-01T12:05:06.696Z,71.50
2019-03-01T12:06:08.093Z,71.41
2019-03-01T12:07:09.496Z,71.69
2019-03-01T12:08:10.930Z,71.88
2019-03-01T12:09:12.351Z,71.78
2019-03-01T12:10:13.778Z,71.69
2019-03-01T12:11:15.181Z,71.78
2019-03-01T12:12:16.600Z,71.78
2019-03-01T12:13:18.019Z,71.50
2019-03-01T12:14:20.350Z,71.88
2019-03-01T12:15:21.760Z,71.41
2019-03-01T12:16:23.188Z,71.37
2019-03-01T12:17:24.649Z,71.75
2019-03-01T12:18:26.071Z,71.75
2019-03-01T12:19:27.497Z,71.94
2019-03-01T12:20:28.908Z,72.03
2019-03-01T12:21:30.291Z,71.75
2019-03-01T12:22:31.697Z,71.75
2019-03-01T12:23:33.137Z,71.46
2019-03-01T12:24:34.544Z,71.75
2019-03-01T12:25:35.949Z,71.84
2019-03-01T12:26:37.365Z,71.50
2019-03-01T12:27:38.793Z,71.22
2019-03-01T12:28:40.189Z,70.70
2019-03-01T12:29:41.615Z,70.23
2019-03-01T12:30:43.049Z,70.51
2019-03-01T12:31:44.446Z,71.18
2019-03-01T12:32:45.858Z,71.56
2019-03-01T12:33:47.276Z,71.66
2019-03-01T12:34:48.684Z,71.97
2019-03-01T12:35:50.113Z,71.75
2019-03-01T12:36:51.512Z,71.37
2019-03-01T12:37:52.941Z,70.79
2019-03-01T12:38:54.371Z,70.23
2019-03-01T12:39:55.758Z,69.56
2019-03-01T12:40:57.184Z,69.94
2019-03-01T12:41:58.621Z,69.56
2019-03-01T12:43:00.024Z,69.69
2019-03-01T12:44:01.423Z,70.04
2019-03-01T12:45:02.909Z,70.04
2019-03-01T12:46:04.334Z,69.66
2019-03-01T12:47:05.739Z,69.85
2019-03-01T12:48:07.169Z,69.18
2019-03-01T12:49:08.576Z,69.37
2019-03-01T12:50:10.010Z,69.56
2019-03-01T12:51:11.413Z,69.18
2019-03-01T12:52:12.815Z,69.27
2019-03-01T12:53:14.261Z,69.66
2019-03-01T12:54:15.717Z,69.94
2019-03-01T12:55:17.106Z,70.04
2019-03-01T12:56:18.519Z,69.75
2019-03-01T12:57:19.958Z,69.85
2019-03-01T12:58:21.379Z,69.09
2019-03-01T12:59:22.790Z,69.27
2019-03-01T13:00:24.219Z,69.94
2019-03-01T13:01:25.650Z,70.04
2019-03-01T13:02:27.068Z,70.51
2019-03-01T13:03:29.991Z,70.42
2019-03-01T13:04:29.884Z,71.18
2019-03-01T13:05:31.284Z,71.56
2019-03-01T13:06:35.346Z,72.41
2019-03-01T13:07:34.141Z,72.99
2019-03-01T13:08:35.582Z,72.70
2019-03-01T13:09:37.024Z,72.99
2019-03-01T13:10:40.236Z,73.23